Tiro, Ohio
Current Conditions -  °F | °C
As of 8:52 AM on Friday 31 Oct 2014 (Local Time) from KMFD Reporting Station
Overcast Overcast  
Wind Chill: 39°   Ceiling: 4900
Heat Index: 43°   Visibility: 10mi
Dew Point: 35°   Wind: 7mph
Humidity: 74%   Direction: 210°SSW
Pressure: 29.92"   Gusts: NA
Location:  40.91°N, 82.77°W
Report Text: KMFD 311252Z 21006KT 10SM OVC049 06/02 A2992 RMK AO2 SLP139 T00610017
Loading
Personal Weather Stations






























Interactive Weather Map
Tropical Storm Tracking
New forecast layout! Learn more

10-Day Weather Forecast

Advertisements
Track Severe Weather on mobile